createdAt,value
2023-02-23T00:00:21.976Z,32.80
2023-02-23T00:02:50.093Z,29.92
2023-02-23T00:05:17.642Z,31.27
2023-02-23T00:07:45.617Z,30.27
2023-02-23T00:10:14.488Z,30.95
2023-02-23T00:12:42.242Z,28.23
2023-02-23T00:15:09.893Z,27.23
2023-02-23T00:17:41.090Z,28.58
2023-02-23T00:20:12.231Z,28.55
2023-02-23T00:22:42.231Z,28.73
2023-02-23T00:25:12.575Z,31.13
2023-02-23T00:27:44.600Z,28.85
2023-02-23T00:30:15.709Z,27.08
2023-02-23T00:32:42.463Z,30.17
2023-02-23T00:35:12.753Z,32.75
2023-02-23T00:37:39.385Z,29.17
2023-02-23T00:40:13.974Z,28.35
2023-02-23T00:42:40.738Z,26.40
2023-02-23T00:45:11.858Z,28.75
2023-02-23T00:47:43.853Z,27.30
2023-02-23T00:50:13.111Z,29.75
2023-02-23T00:52:41.153Z,26.23
2023-02-23T00:55:16.246Z,29.45
2023-02-23T00:57:42.908Z,27.38
2023-02-23T01:00:19.805Z,25.73
2023-02-23T01:02:48.277Z,23.73
2023-02-23T01:05:16.631Z,28.13
2023-02-23T01:07:46.697Z,26.15
2023-02-23T01:10:19.840Z,27.92
2023-02-23T01:12:53.856Z,28.95
2023-02-23T01:15:21.300Z,32.45
2023-02-23T01:17:48.263Z,30.02
2023-02-23T01:20:19.708Z,26.83
2023-02-23T01:22:48.747Z,30.13
2023-02-23T01:25:16.610Z,28.38
2023-02-23T01:27:43.901Z,32.70
2023-02-23T01:33:08.200Z,26.85
2023-02-23T01:35:35.783Z,30.88
2023-02-23T01:38:03.721Z,28.65
2023-02-23T01:58:15.533Z,29.25
2023-02-23T02:03:48.500Z,30.17
2023-02-23T02:06:18.196Z,29.42
2023-02-23T02:08:49.368Z,31.15
2023-02-23T02:11:30.961Z,28.67
2023-02-23T02:14:02.999Z,27.67
2023-02-23T02:16:48.109Z,35.15
2023-02-23T02:19:53.670Z,27.33
2023-02-23T02:22:48.183Z,29.02
2023-02-23T02:35:19.168Z,30.08
2023-02-23T02:37:56.692Z,31.98
2023-02-23T02:40:53.582Z,30.15
2023-02-23T02:43:33.361Z,32.10
2023-02-23T02:46:11.043Z,28.67
2023-02-23T02:49:07.181Z,33.45
2023-02-23T02:51:54.090Z,28.58
2023-02-23T02:54:29.042Z,30.70
2023-02-23T02:56:58.545Z,29.42
2023-02-23T02:59:43.479Z,29.95
2023-02-23T03:02:36.341Z,35.00
2023-02-23T03:05:21.889Z,28.83
2023-02-23T03:08:18.608Z,30.70
2023-02-23T03:11:11.003Z,30.08
2023-02-23T03:14:14.436Z,28.50
2023-02-23T03:17:13.299Z,29.10
2023-02-23T03:23:39.600Z,31.10
2023-02-23T03:26:39.929Z,31.52
2023-02-23T03:29:47.258Z,29.77
2023-02-23T03:32:41.172Z,30.10
2023-02-23T03:35:36.563Z,30.58
2023-02-23T03:38:37.648Z,32.58
2023-02-23T03:41:26.304Z,32.38
2023-02-23T03:44:19.013Z,30.17
2023-02-23T03:47:10.725Z,35.15
2023-02-23T03:49:58.375Z,27.25
2023-02-23T03:52:50.531Z,27.90
2023-02-23T03:55:40.299Z,31.88
2023-02-23T04:01:17.296Z,30.48
2023-02-23T04:04:04.389Z,32.58
2023-02-23T04:06:55.809Z,34.03
2023-02-23T04:09:40.981Z,32.47
2023-02-23T04:12:34.179Z,33.17
2023-02-23T04:15:25.312Z,35.05
2023-02-23T04:17:53.237Z,35.08
2023-02-23T04:20:20.661Z,37.75
2023-02-23T04:22:47.467Z,33.33
2023-02-23T04:25:17.386Z,33.78
2023-02-23T04:27:44.326Z,38.05
2023-02-23T04:30:11.778Z,35.10
2023-02-23T04:32:38.493Z,35.13
2023-02-23T04:35:05.450Z,32.15
2023-02-23T04:37:32.223Z,33.22
2023-02-23T04:39:58.888Z,33.10
2023-02-23T04:42:25.627Z,33.50
2023-02-23T04:44:52.301Z,34.90
2023-02-23T04:47:18.911Z,33.50
2023-02-23T04:49:45.564Z,33.40
2023-02-23T04:52:12.787Z,33.58
2023-02-23T04:54:40.051Z,34.63
2023-02-23T04:57:07.535Z,36.30
2023-02-23T04:59:34.468Z,33.55
2023-02-23T05:02:01.454Z,32.50
2023-02-23T05:04:28.155Z,34.05
2023-02-23T05:06:54.880Z,32.42
2023-02-23T05:09:21.406Z,30.83
2023-02-23T05:11:48.167Z,33.60
2023-02-23T05:14:14.868Z,33.47
2023-02-23T05:16:41.429Z,29.55
2023-02-23T05:19:08.134Z,34.20
2023-02-23T05:21:34.766Z,30.33
2023-02-23T05:24:01.460Z,34.20
2023-02-23T05:26:28.397Z,34.15
2023-02-23T05:28:56.188Z,34.05
2023-02-23T05:31:23.895Z,32.85
2023-02-23T05:33:50.711Z,33.45
2023-02-23T05:36:19.309Z,34.25
2023-02-23T05:38:46.686Z,35.05
2023-02-23T05:41:15.955Z,32.95
2023-02-23T05:43:42.941Z,33.22
2023-02-23T05:46:11.724Z,33.63
2023-02-23T05:48:38.763Z,31.13
2023-02-23T05:51:08.922Z,36.53
2023-02-23T05:53:36.347Z,32.20
2023-02-23T05:56:05.264Z,34.20
2023-02-23T05:58:32.230Z,33.38
2023-02-23T06:00:58.805Z,30.08
2023-02-23T06:03:25.563Z,36.67
2023-02-23T06:05:54.059Z,35.95
2023-02-23T06:08:20.855Z,35.38
2023-02-23T06:10:47.797Z,38.00
2023-02-23T06:13:15.522Z,35.85
2023-02-23T06:15:43.929Z,34.17
2023-02-23T06:18:10.880Z,35.20
2023-02-23T06:20:40.289Z,34.45
2023-02-23T06:23:07.616Z,30.67
2023-02-23T06:25:34.795Z,31.65
2023-02-23T06:28:01.470Z,37.40
2023-02-23T06:30:28.051Z,33.33
2023-02-23T06:32:56.859Z,33.08
2023-02-23T06:35:24.326Z,31.77
2023-02-23T06:37:50.936Z,32.05
2023-02-23T06:40:17.853Z,31.52
2023-02-23T06:42:44.766Z,33.03
2023-02-23T06:45:11.837Z,38.90
2023-02-23T06:47:38.422Z,34.70
2023-02-23T06:50:05.598Z,41.90
2023-02-23T06:52:32.245Z,33.33
2023-02-23T06:54:59.044Z,37.15
2023-02-23T06:57:26.001Z,40.67
2023-02-23T06:59:53.390Z,33.20
2023-02-23T07:02:20.038Z,36.05
2023-02-23T07:04:47.507Z,38.10
2023-02-23T07:07:14.663Z,36.53
2023-02-23T07:09:42.944Z,34.30
2023-02-23T07:12:11.154Z,42.83
2023-02-23T07:14:37.807Z,44.38
2023-02-23T07:17:05.022Z,35.42
2023-02-23T07:19:32.688Z,43.65
2023-02-23T07:21:59.627Z,36.47
2023-02-23T07:24:28.258Z,31.88
2023-02-23T07:26:55.459Z,34.00
2023-02-23T07:29:24.142Z,33.05
2023-02-23T07:31:51.040Z,32.95
2023-02-23T07:34:17.974Z,34.95
2023-02-23T07:36:44.647Z,29.83
2023-02-23T07:39:11.454Z,32.53
2023-02-23T07:41:38.982Z,35.63
2023-02-23T07:44:05.957Z,32.08
2023-02-23T07:46:32.544Z,34.83
2023-02-23T07:48:59.340Z,39.17
2023-02-23T07:51:25.877Z,33.85
2023-02-23T07:53:52.570Z,35.10
2023-02-23T07:56:19.390Z,33.75
2023-02-23T07:58:46.110Z,37.58
2023-02-23T08:01:13.439Z,42.30
2023-02-23T08:03:40.324Z,36.03
2023-02-23T08:06:09.021Z,36.97
2023-02-23T08:08:35.645Z,40.63
2023-02-23T08:11:05.263Z,39.53
2023-02-23T08:13:32.130Z,36.00
2023-02-23T08:15:59.501Z,39.25
2023-02-23T08:18:28.004Z,37.38
2023-02-23T08:21:01.919Z,42.95
2023-02-23T08:23:33.114Z,45.10
2023-02-23T08:26:00.787Z,37.15
2023-02-23T08:28:28.434Z,45.75
2023-02-23T08:30:55.480Z,47.28
2023-02-23T08:33:22.857Z,44.55
2023-02-23T08:35:49.491Z,48.40
2023-02-23T08:38:16.721Z,44.40
2023-02-23T08:40:43.495Z,48.53
2023-02-23T08:43:10.200Z,46.58
2023-02-23T08:45:38.803Z,48.30
2023-02-23T08:48:07.136Z,45.88
2023-02-23T08:50:33.723Z,44.72
2023-02-23T08:53:00.818Z,52.42
2023-02-23T08:55:27.567Z,49.75
2023-02-23T08:57:54.198Z,48.42
2023-02-23T09:00:21.905Z,42.00
2023-02-23T09:02:48.664Z,41.78
2023-02-23T09:05:16.157Z,42.83
2023-02-23T09:07:45.339Z,39.90
2023-02-23T09:10:20.098Z,44.28
2023-02-23T09:12:47.331Z,43.10
2023-02-23T09:15:13.935Z,42.40
2023-02-23T09:17:42.895Z,50.38
2023-02-23T09:20:13.845Z,50.22
2023-02-23T09:25:08.629Z,54.38
2023-02-23T09:27:35.341Z,47.72
2023-02-23T09:30:02.048Z,51.38
2023-02-23T09:32:28.792Z,47.28
2023-02-23T09:34:55.624Z,46.53
2023-02-23T09:37:22.202Z,46.50
2023-02-23T09:39:49.467Z,47.65
2023-02-23T09:42:49.184Z,44.50
2023-02-23T09:45:37.189Z,44.22
2023-02-23T09:48:16.891Z,47.92
2023-02-23T09:50:50.588Z,45.75
2023-02-23T09:53:40.748Z,47.50
2023-02-23T09:56:15.995Z,40.70
2023-02-23T09:58:43.050Z,40.33
2023-02-23T10:01:39.661Z,39.08
2023-02-23T10:04:42.772Z,38.40
2023-02-23T10:07:44.529Z,39.17
2023-02-23T10:10:32.283Z,42.25
2023-02-23T10:13:26.932Z,43.28
2023-02-23T10:16:05.684Z,39.85
2023-02-23T10:18:52.531Z,38.22
2023-02-23T10:21:32.306Z,41.63
2023-02-23T10:24:03.784Z,36.17
2023-02-23T10:26:50.839Z,42.47
2023-02-23T10:29:27.493Z,34.53
2023-02-23T10:32:05.396Z,38.25
2023-02-23T10:34:32.331Z,43.17
2023-02-23T10:37:01.933Z,43.42
2023-02-23T10:39:33.765Z,42.00
2023-02-23T10:42:05.956Z,42.72
2023-02-23T10:44:32.889Z,47.88
2023-02-23T10:47:03.307Z,43.03
2023-02-23T10:49:41.164Z,45.50
2023-02-23T10:52:13.737Z,39.78
2023-02-23T10:54:47.698Z,44.72
2023-02-23T10:57:20.636Z,43.38
2023-02-23T11:00:27.596Z,42.70
2023-02-23T11:02:56.039Z,40.50
2023-02-23T11:05:33.654Z,47.05
2023-02-23T11:08:10.260Z,45.28
2023-02-23T11:10:37.180Z,42.30
2023-02-23T11:13:03.817Z,42.17
2023-02-23T11:15:50.356Z,41.53
2023-02-23T11:18:23.669Z,51.03
2023-02-23T11:20:51.951Z,46.60
2023-02-23T11:23:29.291Z,46.17
2023-02-23T11:26:01.540Z,43.90
2023-02-23T11:28:33.972Z,45.92
2023-02-23T11:31:15.852Z,47.22
2023-02-23T11:33:43.252Z,41.90
2023-02-23T11:36:39.281Z,47.65
2023-02-23T11:39:18.900Z,44.90
2023-02-23T11:41:45.864Z,44.22
2023-02-23T11:44:24.883Z,42.25
2023-02-23T11:46:52.534Z,46.67
2023-02-23T11:49:30.580Z,49.20
2023-02-23T11:51:59.548Z,50.17
2023-02-23T11:54:30.145Z,48.08
2023-02-23T11:56:58.167Z,43.42
2023-02-23T11:59:40.574Z,47.05
2023-02-23T12:02:23.055Z,44.65
2023-02-23T12:04:53.297Z,47.75
2023-02-23T12:07:27.165Z,49.65
2023-02-23T12:10:20.425Z,52.97
2023-02-23T12:12:55.629Z,42.13
2023-02-23T12:15:35.119Z,48.47
2023-02-23T12:18:26.841Z,43.25
2023-02-23T12:21:02.422Z,42.97
2023-02-23T12:23:33.641Z,40.78
2023-02-23T12:26:08.460Z,40.13
2023-02-23T12:28:50.412Z,40.55
2023-02-23T12:31:43.003Z,43.17
2023-02-23T12:34:19.276Z,43.08
2023-02-23T12:36:52.614Z,45.25
2023-02-23T12:39:38.948Z,39.42
2023-02-23T12:42:15.355Z,39.10
2023-02-23T12:44:51.854Z,39.05
2023-02-23T12:47:36.353Z,34.28
2023-02-23T12:50:13.618Z,40.25
2023-02-23T12:52:53.854Z,41.40
2023-02-23T12:55:41.998Z,41.35
2023-02-23T12:58:41.461Z,39.20
2023-02-23T13:01:41.714Z,38.63
2023-02-23T13:04:26.393Z,33.05
2023-02-23T13:06:59.537Z,39.08
2023-02-23T13:09:44.628Z,37.95
2023-02-23T13:12:23.314Z,37.65
2023-02-23T13:14:55.939Z,35.60
2023-02-23T13:17:44.807Z,35.75
2023-02-23T13:20:25.641Z,40.85
2023-02-23T13:23:03.079Z,38.05
2023-02-23T13:25:42.210Z,40.10
2023-02-23T13:28:17.879Z,40.65
2023-02-23T13:30:47.794Z,34.67
2023-02-23T13:33:35.072Z,40.85
2023-02-23T13:36:09.125Z,37.03
2023-02-23T13:39:19.141Z,37.58
2023-02-23T13:41:58.093Z,33.90
2023-02-23T13:44:32.894Z,38.47
2023-02-23T13:47:10.910Z,34.20
2023-02-23T13:49:42.569Z,36.67
2023-02-23T13:52:20.585Z,32.83
2023-02-23T13:54:57.343Z,36.33
2023-02-23T13:57:28.124Z,32.90
2023-02-23T14:02:36.739Z,36.15
2023-02-23T14:05:17.988Z,35.53
2023-02-23T14:07:48.184Z,34.90
2023-02-23T14:10:25.381Z,34.30
2023-02-23T14:13:06.044Z,30.85
2023-02-23T14:15:35.547Z,32.28
2023-02-23T14:18:21.386Z,32.80
2023-02-23T14:21:18.329Z,35.97
2023-02-23T14:23:54.069Z,34.08
2023-02-23T14:26:29.894Z,38.25
2023-02-23T14:29:27.912Z,34.92
2023-02-23T14:31:57.139Z,34.60
2023-02-23T14:34:47.441Z,36.65
2023-02-23T14:37:22.122Z,32.95
2023-02-23T14:39:51.717Z,34.20
2023-02-23T14:42:23.926Z,34.88
2023-02-23T14:44:52.185Z,36.08
2023-02-23T14:47:21.732Z,36.25
2023-02-23T14:49:56.093Z,33.63
2023-02-23T14:52:29.657Z,31.45
2023-02-23T14:55:21.133Z,37.42
2023-02-23T14:57:47.934Z,32.58
2023-02-23T15:00:15.165Z,31.63
2023-02-23T15:02:54.878Z,32.00
2023-02-23T15:05:25.044Z,23.60
2023-02-23T15:07:52.140Z,23.13
2023-02-23T15:10:25.808Z,24.58
2023-02-23T15:12:53.558Z,25.73
2023-02-23T15:15:24.085Z,23.27
2023-02-23T15:17:54.731Z,24.20
2023-02-23T15:20:32.526Z,25.95
2023-02-23T15:23:02.334Z,26.42
2023-02-23T15:25:38.247Z,29.60
2023-02-23T15:28:23.649Z,22.17
2023-02-23T15:30:51.071Z,24.73
2023-02-23T15:33:28.970Z,25.85
2023-02-23T15:36:15.349Z,24.73
2023-02-23T15:38:47.293Z,25.98
2023-02-23T15:41:25.206Z,22.17
2023-02-23T15:43:52.217Z,19.75
2023-02-23T15:46:26.934Z,29.25
2023-02-23T15:48:55.870Z,22.00
2023-02-23T15:51:32.634Z,19.80
2023-02-23T15:54:01.394Z,23.58
2023-02-23T15:56:30.491Z,23.25
2023-02-23T15:59:03.142Z,20.13
2023-02-23T16:01:31.898Z,19.60
2023-02-23T16:04:03.021Z,16.65
2023-02-23T16:06:35.825Z,21.50
2023-02-23T16:09:06.049Z,18.48
2023-02-23T16:11:36.172Z,21.25
2023-02-23T16:14:05.730Z,19.40
2023-02-23T16:16:35.420Z,23.05
2023-02-23T16:19:04.733Z,21.77
2023-02-23T16:21:32.377Z,18.80
2023-02-23T16:24:01.962Z,23.08
2023-02-23T16:26:35.361Z,20.70
2023-02-23T16:29:04.457Z,21.48
2023-02-23T16:31:56.004Z,21.45
2023-02-23T16:34:44.676Z,21.60
2023-02-23T16:37:27.379Z,23.70
2023-02-23T16:39:58.766Z,16.65
2023-02-23T16:42:31.682Z,17.83
2023-02-23T16:44:58.891Z,21.08
2023-02-23T16:47:28.250Z,22.92
2023-02-23T16:49:54.925Z,22.42
2023-02-23T16:52:23.939Z,22.75
2023-02-23T16:54:54.506Z,21.77
2023-02-23T16:57:27.001Z,22.85
2023-02-23T16:59:54.637Z,23.75
2023-02-23T17:02:22.856Z,22.30
2023-02-23T17:04:51.694Z,23.65
2023-02-23T17:07:22.938Z,17.23
2023-02-23T17:09:50.779Z,19.13
2023-02-23T17:12:21.819Z,17.00
2023-02-23T17:14:49.415Z,17.23
2023-02-23T17:17:17.706Z,19.63
2023-02-23T17:19:45.613Z,15.70
2023-02-23T17:22:13.002Z,14.82
2023-02-23T17:24:40.467Z,22.38
2023-02-23T17:27:07.254Z,15.32
2023-02-23T17:29:34.544Z,18.02
2023-02-23T17:32:02.150Z,20.23
2023-02-23T17:34:29.688Z,17.67
2023-02-23T17:36:56.246Z,15.65
2023-02-23T17:39:28.127Z,21.15
2023-02-23T17:41:55.762Z,20.23
2023-02-23T17:44:22.483Z,20.13
2023-02-23T17:46:49.079Z,17.35
2023-02-23T17:49:15.713Z,16.90
2023-02-23T17:51:42.245Z,21.55
2023-02-23T17:54:08.892Z,17.85
2023-02-23T17:56:35.740Z,16.98
2023-02-23T17:59:02.288Z,23.17
2023-02-23T18:01:29.033Z,16.77
2023-02-23T18:03:58.615Z,20.17
2023-02-23T18:06:25.243Z,16.42
2023-02-23T18:08:51.884Z,16.90
2023-02-23T18:11:19.843Z,21.20
2023-02-23T18:13:48.089Z,18.00
2023-02-23T18:16:16.209Z,19.60
2023-02-23T18:18:46.559Z,16.25
2023-02-23T18:21:16.523Z,20.15
2023-02-23T18:23:43.603Z,18.35
2023-02-23T18:26:19.916Z,19.85
2023-02-23T18:28:47.026Z,23.23
2023-02-23T18:31:20.346Z,20.80
2023-02-23T18:33:49.948Z,22.00
2023-02-23T18:36:20.954Z,18.65
2023-02-23T18:38:47.864Z,23.48
2023-02-23T18:41:14.963Z,21.83
2023-02-23T18:43:41.645Z,22.73
2023-02-23T18:46:09.709Z,21.45
2023-02-23T18:48:37.283Z,25.17
2023-02-23T18:51:07.633Z,23.73
2023-02-23T18:53:37.279Z,18.15
2023-02-23T18:56:08.794Z,18.83
2023-02-23T18:58:35.747Z,18.73
2023-02-23T19:01:02.667Z,19.20
2023-02-23T19:03:29.237Z,22.83
2023-02-23T19:05:55.806Z,21.75
2023-02-23T19:08:22.862Z,22.67
2023-02-23T19:10:52.129Z,26.60
2023-02-23T19:13:22.086Z,18.05
2023-02-23T19:15:50.024Z,26.13
2023-02-23T19:18:16.831Z,20.90
2023-02-23T19:20:43.403Z,21.58
2023-02-23T19:23:12.166Z,20.45
2023-02-23T19:25:39.651Z,18.50
2023-02-23T19:28:09.108Z,19.48
2023-02-23T19:30:35.728Z,23.35
2023-02-23T19:33:03.633Z,24.10
2023-02-23T19:35:30.412Z,24.55
2023-02-23T19:37:58.396Z,19.05
2023-02-23T19:40:30.061Z,19.70
2023-02-23T19:42:57.525Z,25.83
2023-02-23T19:45:25.866Z,20.33
2023-02-23T19:47:53.255Z,23.85
2023-02-23T19:50:20.261Z,25.45
2023-02-23T19:52:48.311Z,22.10
2023-02-23T19:57:52.174Z,23.55
2023-02-23T20:00:21.476Z,25.23
2023-02-23T20:02:54.960Z,18.85
2023-02-23T20:05:23.350Z,25.80
2023-02-23T20:07:52.522Z,22.33
2023-02-23T20:10:25.755Z,21.55
2023-02-23T20:15:42.705Z,19.60
2023-02-23T20:18:10.077Z,21.83
2023-02-23T20:20:39.604Z,27.98
2023-02-23T20:23:12.003Z,28.15
2023-02-23T20:25:41.506Z,32.78
2023-02-23T20:28:08.370Z,33.50
2023-02-23T20:30:35.136Z,30.75
2023-02-23T20:33:05.935Z,33.08
2023-02-23T20:35:32.703Z,30.15
2023-02-23T20:37:59.510Z,34.53
2023-02-23T20:40:27.396Z,35.83
2023-02-23T20:42:53.984Z,34.10
2023-02-23T20:45:22.905Z,36.85
2023-02-23T20:47:53.193Z,37.63
2023-02-23T20:50:21.722Z,36.95
2023-02-23T20:52:49.586Z,40.75
2023-02-23T20:55:18.961Z,39.10
2023-02-23T20:57:47.522Z,43.13
2023-02-23T21:00:20.201Z,37.30
2023-02-23T21:02:46.893Z,43.92
2023-02-23T21:05:13.528Z,40.05
2023-02-23T21:07:40.417Z,39.13
2023-02-23T21:10:08.620Z,38.50
2023-02-23T21:12:35.697Z,36.70
2023-02-23T21:15:04.669Z,43.38
2023-02-23T21:17:31.365Z,42.50
2023-02-23T21:19:57.971Z,45.00
2023-02-23T21:22:24.606Z,38.30
2023-02-23T21:24:51.249Z,39.65
2023-02-23T21:27:17.870Z,37.97
2023-02-23T21:29:44.791Z,40.33
2023-02-23T21:32:16.813Z,39.53
2023-02-23T21:34:43.910Z,44.25
2023-02-23T21:37:10.780Z,54.22
2023-02-23T21:39:37.430Z,46.03
2023-02-23T21:42:05.919Z,47.80
2023-02-23T21:44:33.413Z,43.88
2023-02-23T21:47:04.905Z,47.00
2023-02-23T21:49:31.465Z,43.25
2023-02-23T21:51:58.406Z,42.05
2023-02-23T21:54:24.971Z,50.13
2023-02-23T21:56:51.600Z,46.88
2023-02-23T21:59:18.318Z,49.85
2023-02-23T22:01:45.121Z,44.10
2023-02-23T22:04:14.448Z,46.55
2023-02-23T22:06:44.585Z,43.92
2023-02-23T22:11:55.095Z,47.20
2023-02-23T22:14:21.757Z,44.20
2023-02-23T22:16:49.789Z,42.38
2023-02-23T22:19:17.817Z,41.10
2023-02-23T22:21:45.307Z,43.63
2023-02-23T22:24:14.061Z,43.38
2023-02-23T22:26:43.075Z,45.03
2023-02-23T22:29:10.756Z,43.80
2023-02-23T22:31:37.858Z,42.35
2023-02-23T22:34:06.405Z,41.30
2023-02-23T22:36:34.334Z,39.55
2023-02-23T22:39:01.117Z,44.35
2023-02-23T22:41:29.816Z,41.08
2023-02-23T22:43:57.756Z,41.33
2023-02-23T22:46:25.285Z,39.05
2023-02-23T22:48:52.076Z,37.55
2023-02-23T22:51:19.688Z,37.70
2023-02-23T22:53:46.396Z,38.13
2023-02-23T22:56:14.060Z,38.88
2023-02-23T22:58:42.215Z,38.83
2023-02-23T23:01:11.144Z,40.65
2023-02-23T23:03:45.865Z,40.03
2023-02-23T23:06:23.653Z,44.83
2023-02-23T23:08:52.558Z,39.88
2023-02-23T23:11:22.883Z,42.67
2023-02-23T23:13:52.178Z,42.78
2023-02-23T23:16:32.005Z,37.30
2023-02-23T23:19:04.679Z,37.95
2023-02-23T23:21:33.722Z,40.05
2023-02-23T23:24:05.925Z,35.60
2023-02-23T23:26:35.797Z,42.28
2023-02-23T23:29:04.836Z,45.47
2023-02-23T23:31:34.779Z,41.53
2023-02-23T23:34:05.038Z,34.80
2023-02-23T23:36:37.478Z,38.63
2023-02-23T23:39:04.506Z,37.40
2023-02-23T23:41:35.549Z,39.92
2023-02-23T23:44:05.264Z,45.25
2023-02-23T23:46:37.952Z,39.97
2023-02-23T23:49:08.316Z,39.67
2023-02-23T23:51:47.985Z,43.53
2023-02-23T23:54:20.304Z,41.72
2023-02-23T23:56:47.753Z,43.65
2023-02-23T23:59:17.339Z,40.33
